Time;durP1;ratioP1;P1;durP2;ratioP2;P2;SDS_P1;SDS_P2;PMS_P1;PMS_P2;Temp;Humidity;BMP_temperature;BMP_pressure;BME280_temperature;BME280_humidity;BME280_pressure;Samples;Min_cycle;Max_cycle;Signal;HPM_P1;HPM_P2
2022/08/24 00:02:00;;;;;;;8.02;4.10;;;;;;;20.30;67.75;101570.47;5105377;27;20651;-74
2022/08/24 00:04:28;;;;;;;6.43;4.38;;;;;;;20.27;67.82;101570.63;5100418;28;20036;-75
2022/08/24 00:07:00;;;;;;;6.95;4.40;;;;;;;20.25;68.03;101561.84;5097620;27;20132;-75
2022/08/24 00:09:30;;;;;;;6.68;4.50;;;;;;;20.21;68.17;101557.63;5100989;28;20507;-75
2022/08/24 00:11:58;;;;;;;5.32;4.10;;;;;;;20.21;68.44;101560.31;5098014;27;20566;-74
2022/08/24 00:14:25;;;;;;;9.40;4.45;;;;;;;20.16;68.17;101565.06;5104624;27;20037;-75
2022/08/24 00:16:53;;;;;;;6.25;5.00;;;;;;;20.13;68.39;101562.59;5110417;27;20063;-75
2022/08/24 00:19:20;;;;;;;5.95;4.80;;;;;;;20.11;68.71;101565.34;5109248;27;20111;-75
2022/08/24 00:21:47;;;;;;;8.13;4.78;;;;;;;20.09;68.90;101564.59;5092270;27;20550;-74
2022/08/24 00:24:15;;;;;;;6.18;4.80;;;;;;;20.06;68.68;101566.56;5102227;27;20090;-75
2022/08/24 00:26:44;;;;;;;5.18;4.28;;;;;;;20.02;69.54;101565.88;5090255;27;20143;-74
2022/08/24 00:29:14;;;;;;;6.78;4.88;;;;;;;19.98;69.61;101567.88;5100180;27;20151;-74
2022/08/24 00:31:42;;;;;;;6.65;4.93;;;;;;;19.96;69.96;101563.56;5097639;27;20499;-75
2022/08/24 00:34:09;;;;;;;8.07;5.07;;;;;;;19.93;70.99;101578.00;5107702;27;20393;-74
2022/08/24 00:36:37;;;;;;;9.32;7.30;;;;;;;19.95;74.33;101581.44;5106311;27;20089;-74
2022/08/24 00:39:06;;;;;;;12.57;7.78;;;;;;;19.94;74.32;101571.69;5091130;28;20094;-74
2022/08/24 00:41:38;;;;;;;10.80;8.75;;;;;;;19.95;74.05;101577.91;5100118;27;20489;-72
2022/08/24 00:44:06;;;;;;;12.07;9.95;;;;;;;19.94;74.42;101577.03;5108746;27;20040;-72
2022/08/24 00:47:11;;;;;;;11.45;9.00;;;;;;;19.94;74.39;101585.06;5111532;27;20046;-72
2022/08/24 00:49:46;;;;;;;11.63;8.45;;;;;;;19.93;73.98;101590.50;5096958;27;20092;-72
2022/08/24 00:52:42;;;;;;;14.45;9.43;;;;;;;19.93;73.85;101594.06;5110984;27;20516;-73
2022/08/24 00:55:18;;;;;;;20.30;12.48;;;;;;;19.92;74.02;101586.09;5116562;27;20044;-72
2022/08/24 00:57:56;;;;;;;16.92;11.25;;;;;;;19.89;74.16;101583.63;5132788;27;20115;-72
2022/08/24 01:00:31;;;;;;;14.57;9.80;;;;;;;19.91;73.94;101579.03;5112435;27;20538;-72
2022/08/24 01:03:03;;;;;;;11.50;9.55;;;;;;;19.91;73.60;101582.56;5104207;27;20525;-72
2022/08/24 01:05:34;;;;;;;13.13;8.93;;;;;;;19.89;73.77;101581.81;5113792;27;20036;-72
2022/08/24 01:08:05;;;;;;;11.90;7.90;;;;;;;19.84;73.55;101582.03;5117275;27;20044;-72
2022/08/24 01:10:39;;;;;;;9.68;6.85;;;;;;;19.79;73.22;101584.09;5106981;27;20121;-72
2022/08/24 01:13:12;;;;;;;8.80;6.72;;;;;;;19.75;73.46;101587.03;5095012;27;20064;-71
2022/08/24 01:15:48;;;;;;;12.82;7.43;;;;;;;19.69;73.96;101583.78;5108800;27;20435;-73
2022/08/24 01:21:15;;;;;;;11.27;8.30;;;;;;;19.63;74.49;101593.97;5103668;27;20042;-73
2022/08/24 01:23:56;;;;;;;8.65;7.50;;;;;;;19.60;74.10;101589.66;5104800;27;20044;-73
2022/08/24 01:26:34;;;;;;;10.10;7.50;;;;;;;19.59;74.08;101587.03;5102344;27;20049;-73
2022/08/24 01:29:15;;;;;;;10.27;7.80;;;;;;;19.58;74.31;101591.56;5127155;27;20533;-73
2022/08/24 01:31:43;;;;;;;12.88;8.23;;;;;;;19.58;74.03;101593.38;5129670;27;20075;-72
2022/08/24 01:34:12;;;;;;;10.98;9.15;;;;;;;19.58;74.57;101596.06;5099970;27;20036;-73
2022/08/24 01:36:54;;;;;;;19.13;13.68;;;;;;;19.60;76.10;101594.13;5107194;27;20111;-73
2022/08/24 01:39:35;;;;;;;14.88;10.60;;;;;;;19.59;76.04;101587.94;5108729;27;20114;-73
2022/08/24 01:42:03;;;;;;;13.20;9.68;;;;;;;19.57;75.61;101584.47;5106706;27;20546;-71
2022/08/24 01:44:35;;;;;;;17.25;12.48;;;;;;;19.55;75.42;101591.72;5098799;28;20530;-71
2022/08/24 01:47:05;;;;;;;18.50;14.65;;;;;;;19.52;75.35;101598.09;5102092;27;20482;-70
2022/08/24 01:49:41;;;;;;;21.95;15.23;;;;;;;19.52;75.68;101589.22;5107614;27;20048;-71
2022/08/24 01:52:14;;;;;;;17.38;13.02;;;;;;;19.49;75.67;101590.25;5116971;27;20068;-70
2022/08/24 01:54:42;;;;;;;18.65;12.70;;;;;;;19.48;75.26;101590.34;5109206;27;20121;-71
2022/08/24 01:57:11;;;;;;;18.25;14.27;;;;;;;19.46;75.16;101587.75;5107162;27;20049;-70
2022/08/24 01:59:44;;;;;;;17.00;14.30;;;;;;;19.45;75.18;101591.38;5112977;27;20067;-74
2022/08/24 02:02:23;;;;;;;13.65;12.13;;;;;;;19.42;75.68;101588.88;5115063;27;20047;-74
2022/08/24 02:04:51;;;;;;;14.35;11.55;;;;;;;19.38;75.69;101588.19;5113490;27;20044;-74
2022/08/24 02:07:18;;;;;;;16.80;10.65;;;;;;;19.34;75.58;101593.78;5112940;27;20071;-75
2022/08/24 02:09:46;;;;;;;13.13;9.38;;;;;;;19.29;75.31;101591.38;5112449;27;20066;-74
2022/08/24 02:12:15;;;;;;;13.15;10.07;;;;;;;19.26;75.65;101593.34;5108799;27;20040;-74
2022/08/24 02:14:43;;;;;;;16.40;10.20;;;;;;;19.21;75.78;101590.94;5092378;28;20049;-74
2022/08/24 02:17:11;;;;;;;12.68;10.93;;;;;;;19.17;75.89;101594.72;5103666;27;20047;-74
2022/08/24 02:19:42;;;;;;;11.70;10.18;;;;;;;19.13;75.92;101598.53;5099353;27;20045;-74
2022/08/24 02:22:10;;;;;;;12.18;10.27;;;;;;;19.08;75.73;101591.59;5102662;28;20094;-74
2022/08/24 02:24:39;;;;;;;11.98;9.63;;;;;;;19.04;75.74;101595.38;5099418;28;20123;-74
2022/08/24 02:27:08;;;;;;;14.00;11.13;;;;;;;19.02;75.69;101593.75;5109425;27;20123;-74
2022/08/24 02:29:35;;;;;;;14.13;11.95;;;;;;;18.99;76.06;101593.91;5119528;27;20043;-74
2022/08/24 02:32:03;;;;;;;14.15;12.75;;;;;;;18.98;76.31;101598.38;5103443;27;20040;-74
2022/08/24 02:34:30;;;;;;;15.18;12.02;;;;;;;18.95;76.05;101601.22;5126536;27;20044;-73
2022/08/24 02:36:58;;;;;;;15.00;12.20;;;;;;;18.91;76.13;101599.66;5118116;27;20040;-73
2022/08/24 02:39:27;;;;;;;15.68;12.55;;;;;;;18.87;76.36;101603.41;5106271;28;20044;-72
2022/08/24 02:41:55;;;;;;;12.82;11.00;;;;;;;18.84;76.43;101601.78;5099681;27;20044;-72
2022/08/24 02:44:26;;;;;;;13.38;11.95;;;;;;;18.80;76.77;101602.88;5111627;27;20043;-73
2022/08/24 02:46:54;;;;;;;15.43;12.63;;;;;;;18.78;76.39;101602.09;5091268;27;20531;-72
2022/08/24 02:49:22;;;;;;;14.52;12.10;;;;;;;18.75;76.55;101610.28;5099720;27;20758;-72
2022/08/24 02:51:50;;;;;;;14.68;12.18;;;;;;;18.73;76.83;101609.50;5119809;27;20051;-72
2022/08/24 02:54:19;;;;;;;13.88;12.25;;;;;;;18.70;77.08;101605.19;5097591;28;20150;-73
2022/08/24 02:56:50;;;;;;;16.52;11.55;;;;;;;18.68;76.91;101611.53;5111757;27;20097;-73
2022/08/24 02:59:18;;;;;;;14.05;11.18;;;;;;;18.65;76.83;101612.56;5107409;27;20133;-73
2022/08/24 03:01:47;;;;;;;16.10;12.70;;;;;;;18.65;76.80;101606.38;5096455;27;20059;-72
2022/08/24 03:04:17;;;;;;;14.88;12.32;;;;;;;18.63;77.01;101609.97;5095954;27;20078;-73
2022/08/24 03:06:46;;;;;;;15.45;12.23;;;;;;;18.60;77.21;101604.78;5091426;27;20044;-72
2022/08/24 03:09:13;;;;;;;14.65;12.02;;;;;;;18.59;77.01;101602.22;5104814;28;20577;-72
2022/08/24 03:11:41;;;;;;;16.33;12.77;;;;;;;18.56;77.25;101605.91;5102977;28;20503;-72
2022/08/24 03:14:12;;;;;;;15.25;12.55;;;;;;;18.53;77.41;101603.38;5125443;27;20082;-71
2022/08/24 03:16:40;;;;;;;16.05;12.40;;;;;;;18.49;77.28;101604.47;5103789;27;20048;-72
2022/08/24 03:19:07;;;;;;;16.70;12.23;;;;;;;18.45;77.24;101609.09;5112148;27;20576;-72
2022/08/24 03:21:36;;;;;;;13.10;11.50;;;;;;;18.42;77.25;101593.25;5106054;27;20044;-71
2022/08/24 03:24:04;;;;;;;16.25;12.07;;;;;;;18.41;77.38;101596.88;5095261;27;20078;-72
2022/08/24 03:26:32;;;;;;;15.02;12.65;;;;;;;18.40;77.44;101600.50;5101595;27;20044;-72
2022/08/24 03:28:59;;;;;;;15.90;13.50;;;;;;;18.37;77.57;101603.31;5096212;27;20049;-71
2022/08/24 03:31:27;;;;;;;15.75;12.90;;;;;;;18.33;77.56;101604.41;5092078;27;20530;-71
2022/08/24 03:33:54;;;;;;;17.63;13.60;;;;;;;18.29;77.75;101603.69;5109747;28;20503;-72
2022/08/24 03:36:21;;;;;;;17.98;14.32;;;;;;;18.27;77.61;101608.22;5126839;27;20043;-71
2022/08/24 03:38:49;;;;;;;18.23;14.07;;;;;;;18.25;77.80;101602.13;5107634;27;20067;-71
2022/08/24 03:41:17;;;;;;;16.58;13.77;;;;;;;18.24;77.73;101596.84;5099261;28;20786;-71
2022/08/24 03:43:45;;;;;;;16.75;13.55;;;;;;;18.23;77.65;101589.78;5106179;27;20056;-71
2022/08/24 03:46:21;;;;;;;15.50;13.52;;;;;;;18.22;77.75;101594.28;5140133;27;20043;-71
2022/08/24 03:48:54;;;;;;;18.90;14.10;;;;;;;18.20;77.95;101590.81;5106747;27;20418;-70
2022/08/24 03:51:26;;;;;;;15.23;12.18;;;;;;;18.19;77.98;101594.44;5105174;27;20041;-72
2022/08/24 03:53:57;;;;;;;15.75;13.35;;;;;;;18.15;78.21;101582.19;5109594;27;20120;-71
2022/08/24 03:56:27;;;;;;;18.08;13.65;;;;;;;18.15;78.38;101579.53;5090487;27;20970;-71
2022/08/24 03:58:56;;;;;;;16.70;13.90;;;;;;;18.14;78.33;101581.31;5106511;27;20044;-71
2022/08/24 04:01:26;;;;;;;14.70;13.18;;;;;;;18.14;78.12;101580.47;5094782;27;20068;-71
2022/08/24 04:03:55;;;;;;;15.45;12.98;;;;;;;18.13;78.43;101581.41;5100532;27;20617;-71
2022/08/24 04:06:28;;;;;;;15.80;12.95;;;;;;;18.10;78.74;101582.44;5109487;27;20044;-72
2022/08/24 04:08:55;;;;;;;19.67;13.23;;;;;;;18.09;78.47;101591.38;5109844;27;20079;-72
2022/08/24 04:11:27;;;;;;;18.85;12.73;;;;;;;18.07;78.62;101584.38;5105311;27;20043;-72
2022/08/24 04:13:57;;;;;;;14.57;12.27;;;;;;;18.08;78.48;101586.97;5107103;27;20208;-72
2022/08/24 04:16:28;;;;;;;14.70;12.95;;;;;;;18.07;78.61;101590.59;5097429;27;20120;-72
2022/08/24 04:19:07;;;;;;;15.35;12.93;;;;;;;18.06;78.72;101596.00;5092426;27;20556;-73
2022/08/24 04:21:35;;;;;;;18.35;13.48;;;;;;;18.04;78.83;101598.72;5098258;27;20040;-73
2022/08/24 04:24:09;;;;;;;20.45;13.63;;;;;;;18.04;78.59;101604.06;5094328;27;20048;-73
2022/08/24 04:26:40;;;;;;;14.85;12.40;;;;;;;18.02;78.20;101613.09;5091012;27;20586;-73
2022/08/24 04:29:18;;;;;;;14.90;11.43;;;;;;;17.99;78.28;101612.28;5103590;27;20530;-73
2022/08/24 04:31:52;;;;;;;15.10;12.85;;;;;;;17.97;78.35;101607.97;5113256;27;20605;-72
2022/08/24 04:34:21;;;;;;;18.33;15.43;;;;;;;17.94;78.75;101608.97;5107606;27;20048;-71
2022/08/24 04:36:49;;;;;;;17.05;14.13;;;;;;;17.94;79.15;101613.44;5123349;27;20440;-70
2022/08/24 04:39:17;;;;;;;19.50;14.57;;;;;;;17.92;79.69;101613.50;5112836;27;20507;-73
2022/08/24 04:42:00;;;;;;;16.98;14.60;;;;;;;17.91;79.94;101614.44;5102926;27;20061;-72
2022/08/24 04:44:35;;;;;;;20.55;15.13;;;;;;;17.90;79.80;101618.06;5096302;27;20055;-70
2022/08/24 04:47:04;;;;;;;16.65;14.20;;;;;;;17.89;79.58;101627.00;5104607;27;20075;-73
2022/08/24 04:49:32;;;;;;;16.40;13.30;;;;;;;17.90;79.44;101627.88;5097194;28;20044;-72
2022/08/24 04:52:00;;;;;;;15.27;12.60;;;;;;;17.93;79.46;101635.69;5122866;27;20488;-71
2022/08/24 04:54:28;;;;;;;18.20;14.77;;;;;;;17.93;79.33;101639.25;5104994;27;20044;-72
2022/08/24 04:57:05;;;;;;;20.55;15.43;;;;;;;17.96;79.29;101636.44;5095277;27;20527;-73
2022/08/24 04:59:33;;;;;;;18.50;15.50;;;;;;;17.98;79.17;101639.91;5096044;27;20047;-73
2022/08/24 05:02:00;;;;;;;17.10;14.60;;;;;;;18.03;79.12;101645.00;5104349;27;20052;-73
2022/08/24 05:04:28;;;;;;;19.50;17.20;;;;;;;18.08;78.95;101644.78;5124037;27;20097;-74
2022/08/24 05:06:57;;;;;;;20.60;14.65;;;;;;;18.12;79.00;101641.03;5100283;27;20119;-73
2022/08/24 05:09:24;;;;;;;24.48;15.05;;;;;;;18.16;79.05;101645.31;5122554;27;20044;-72
2022/08/24 05:11:54;;;;;;;21.67;14.73;;;;;;;18.21;78.87;101642.41;5105432;27;20040;-73
2022/08/24 05:14:25;;;;;;;18.58;16.15;;;;;;;18.25;78.94;101641.28;5103576;27;20418;-73
2022/08/24 05:16:58;;;;;;;18.83;16.15;;;;;;;18.30;79.02;101642.78;5104377;27;20620;-72
2022/08/24 05:19:30;;;;;;;19.00;16.38;;;;;;;18.38;79.04;101646.88;5119009;27;20475;-72
2022/08/24 05:21:59;;;;;;;21.05;18.55;;;;;;;18.54;78.76;101644.28;5106846;28;20043;-73
2022/08/24 05:24:28;;;;;;;19.88;17.20;;;;;;;18.84;78.04;101647.19;5124341;27;20047;-72
2022/08/24 05:26:57;;;;;;;20.73;17.00;;;;;;;19.89;75.79;101648.69;5102902;27;20511;-74
2022/08/24 05:29:26;;;;;;;22.52;15.27;;;;;;;21.58;71.77;101649.31;5120005;27;20045;-72
2022/08/24 05:31:53;;;;;;;20.48;14.35;;;;;;;22.95;67.42;101644.66;5110413;27;20519;-72
2022/08/24 05:34:23;;;;;;;18.27;13.80;;;;;;;24.04;63.89;101642.31;5110486;27;20036;-72
2022/08/24 05:36:50;;;;;;;16.17;11.85;;;;;;;24.94;60.61;101641.72;5109482;28;20066;-71
2022/08/24 05:39:43;;;;;;;16.30;13.25;;;;;;;25.35;58.72;101646.63;5107598;27;20652;-71
2022/08/24 05:42:12;;;;;;;14.15;11.27;;;;;;;24.39;60.47;101654.09;5108270;27;20040;-72
2022/08/24 05:44:45;;;;;;;16.63;12.10;;;;;;;23.25;62.98;101659.63;5109415;27;20041;-74
2022/08/24 05:47:14;;;;;;;16.23;12.15;;;;;;;22.50;65.03;101652.28;5123726;27;20135;-74
2022/08/24 05:49:42;;;;;;;15.23;13.40;;;;;;;21.93;66.51;101656.03;5124128;27;20465;-73
2022/08/24 05:52:10;;;;;;;19.73;13.75;;;;;;;21.52;68.26;101655.91;5125498;27;20047;-73
2022/08/24 05:54:39;;;;;;;21.13;14.18;;;;;;;21.24;69.48;101659.47;5114666;27;20509;-74
2022/08/24 05:57:11;;;;;;;16.95;14.02;;;;;;;21.04;70.16;101658.91;5117859;27;20454;-72
2022/08/24 05:59:50;;;;;;;19.92;14.65;;;;;;;20.90;71.11;101664.25;5106250;27;20797;-72
2022/08/24 06:02:19;;;;;;;18.13;14.82;;;;;;;20.83;71.36;101657.53;5110840;27;20044;-72
2022/08/24 06:04:46;;;;;;;22.63;13.75;;;;;;;20.78;72.06;101661.38;5110398;27;20044;-73
2022/08/24 06:07:15;;;;;;;20.65;14.43;;;;;;;20.76;72.38;101659.72;5112134;27;20089;-73
2022/08/24 06:09:48;;;;;;;19.85;16.80;;;;;;;20.75;72.80;101658.03;5103442;27;20051;-73
2022/08/24 06:12:15;;;;;;;21.10;17.73;;;;;;;20.81;73.38;101667.50;5112015;27;20036;-73
2022/08/24 06:14:46;;;;;;;23.30;18.45;;;;;;;20.88;73.54;101668.84;5110000;28;20040;-73
2022/08/24 06:17:18;;;;;;;23.52;18.10;;;;;;;20.93;73.74;101666.75;5126977;27;20490;-73
2022/08/24 06:19:46;;;;;;;22.95;18.30;;;;;;;20.96;73.78;101671.06;5111181;27;20126;-72
2022/08/24 06:22:14;;;;;;;19.63;13.68;;;;;;;20.97;73.59;101664.72;5109521;27;20048;-74
2022/08/24 06:27:28;;;;;;;23.27;19.15;;;;;;;21.12;73.83;101677.19;5108647;28;20079;-72
2022/08/24 06:30:02;;;;;;;23.58;17.25;;;;;;;21.21;73.88;101673.09;5113394;27;20921;-72
2022/08/24 06:32:48;;;;;;;25.85;16.92;;;;;;;21.29;73.62;101668.09;5115687;27;20044;-73
2022/08/24 06:35:42;;;;;;;22.15;16.95;;;;;;;21.37;73.87;101675.66;5107989;28;20056;-73
2022/08/24 06:38:12;;;;;;;17.25;13.65;;;;;;;21.38;73.32;101672.00;5110868;27;20042;-71
2022/08/24 06:40:41;;;;;;;18.00;14.75;;;;;;;21.48;73.41;101669.63;5107919;27;20040;-72
2022/08/24 06:43:09;;;;;;;21.27;16.23;;;;;;;21.62;73.15;101674.13;5116158;27;20596;-71
2022/08/24 06:45:55;;;;;;;25.23;18.75;;;;;;;21.73;72.92;101677.00;5108306;28;20048;-70
2022/08/24 06:48:29;;;;;;;25.30;16.00;;;;;;;21.81;72.81;101680.03;5099487;28;21013;-71
2022/08/24 06:50:58;;;;;;;32.50;18.10;;;;;;;21.91;72.79;101679.44;5108154;28;20044;-71
2022/08/24 06:53:27;;;;;;;26.55;17.92;;;;;;;21.97;72.55;101679.91;5111026;28;20044;-71
2022/08/24 06:55:58;;;;;;;28.40;18.52;;;;;;;22.07;72.89;101688.22;5097201;27;20048;-71
2022/08/24 06:58:27;;;;;;;21.20;18.40;;;;;;;22.14;72.71;101673.44;5105939;27;20888;-70
2022/08/24 07:00:56;;;;;;;24.67;17.02;;;;;;;22.23;72.58;101685.34;5109942;27;20048;-71
2022/08/24 07:03:25;;;;;;;27.63;17.45;;;;;;;22.32;72.45;101683.88;5112035;27;20098;-71
2022/08/24 07:06:06;;;;;;;24.58;17.35;;;;;;;22.42;72.63;101682.34;5130964;27;20507;-71
2022/08/24 07:08:41;;;;;;;;;;;;;;;22.48;72.26;101678.38;5112390;28;20044;-72
2022/08/24 07:11:14;;;;;;;28.83;18.10;;;;;;;22.56;72.08;101681.41;5110342;27;20021;-71
2022/08/24 07:13:42;;;;;;;31.35;17.90;;;;;;;22.63;71.76;101673.78;5107676;27;20044;-71
2022/08/24 07:16:09;;;;;;;28.83;16.15;;;;;;;22.72;71.77;101681.22;5106046;27;20844;-72
2022/08/24 07:18:38;;;;;;;28.92;16.40;;;;;;;22.85;71.70;101677.69;5107070;27;20044;-72
2022/08/24 07:21:08;;;;;;;28.40;17.48;;;;;;;22.94;71.26;101680.59;5123037;27;20052;-72
2022/08/24 07:23:40;;;;;;;30.10;19.52;;;;;;;23.07;71.32;101685.97;5117469;27;20047;-73
2022/08/24 07:26:19;;;;;;;27.73;17.92;;;;;;;23.18;70.83;101679.00;5097003;27;20191;-73
2022/08/24 07:28:51;;;;;;;33.67;16.73;;;;;;;23.31;70.50;101682.53;5107697;27;20042;-74
2022/08/24 07:31:20;;;;;;;25.92;17.77;;;;;;;23.44;69.44;101689.75;5106914;27;20041;-76
2022/08/24 07:33:55;;;;;;;19.23;15.00;;;;;;;23.57;69.09;101683.34;5114989;27;20466;-74
2022/08/24 07:36:24;;;;;;;22.25;15.48;;;;;;;23.69;68.15;101676.25;5094649;27;20052;-73
2022/08/24 07:38:56;;;;;;;27.05;15.65;;;;;;;23.84;67.82;101684.16;5114118;27;20502;-74
2022/08/24 07:41:26;;;;;;;33.45;13.73;;;;;;;23.96;66.92;101688.66;5110643;27;20114;-74
2022/08/24 07:44:16;;;;;;;17.75;12.52;;;;;;;24.13;64.98;101686.53;5110334;27;20040;-73
2022/08/24 07:46:43;;;;;;;23.38;11.85;;;;;;;24.27;64.18;101698.97;5127175;27;20044;-73
2022/08/24 07:49:13;;;;;;;18.73;12.05;;;;;;;24.38;63.01;101685.53;5114201;27;20097;-73
2022/08/24 07:52:02;;;;;;;22.33;11.40;;;;;;;24.53;62.31;101688.91;5107232;27;20040;-74
2022/08/24 07:54:29;;;;;;;35.15;11.55;;;;;;;24.67;61.40;101690.56;5109579;28;20090;-73
2022/08/24 07:56:59;;;;;;;54.33;11.55;;;;;;;24.78;60.71;101690.59;5110160;27;20510;-72
2022/08/24 07:59:26;;;;;;;18.20;9.40;;;;;;;24.93;59.75;101691.25;5111135;27;20082;-71
2022/08/24 08:01:55;;;;;;;28.25;8.43;;;;;;;25.05;58.61;101696.66;5108583;27;20489;-71
2022/08/24 08:04:24;;;;;;;33.28;8.88;;;;;;;25.18;58.43;101699.28;5126798;27;20060;-74
2022/08/24 08:06:53;;;;;;;16.58;8.90;;;;;;;25.28;57.90;101698.41;5116984;27;20042;-72
2022/08/24 08:09:26;;;;;;;15.18;8.30;;;;;;;25.39;57.68;101702.09;5124125;27;20040;-74
2022/08/24 08:11:53;;;;;;;61.22;10.15;;;;;;;25.52;57.57;101708.25;5109442;27;20036;-74
2022/08/24 08:14:20;;;;;;;23.60;7.82;;;;;;;25.65;57.98;101705.41;5118783;27;20040;-70
2022/08/24 08:16:49;;;;;;;17.20;7.50;;;;;;;25.79;57.90;101708.84;5127738;27;20121;-72
2022/08/24 08:19:16;;;;;;;14.75;7.55;;;;;;;25.89;57.36;101707.09;5119712;27;20036;-73
2022/08/24 08:24:56;;;;;;;14.98;6.25;;;;;;;26.18;56.99;101712.81;5110256;27;20052;-72
2022/08/24 08:27:24;;;;;;;7.70;4.90;;;;;;;26.29;57.04;101716.47;5112711;27;20535;-73
2022/08/24 08:29:51;;;;;;;10.20;5.30;;;;;;;26.44;56.51;101720.59;5130624;27;20750;-74
2022/08/24 08:32:19;;;;;;;16.58;7.50;;;;;;;26.59;55.79;101713.03;5112217;27;20047;-73
2022/08/24 08:34:48;;;;;;;10.38;5.68;;;;;;;26.71;54.95;101710.25;5121838;27;20128;-72
2022/08/24 08:37:16;;;;;;;11.20;5.97;;;;;;;26.77;54.76;101707.91;5108669;27;20043;-70
2022/08/24 08:39:44;;;;;;;11.93;4.80;;;;;;;26.86;54.17;101708.13;5111144;27;20055;-69
2022/08/24 08:42:35;;;;;;;11.75;4.70;;;;;;;26.96;53.72;101701.75;5123447;27;20098;-70
2022/08/24 08:45:41;;;;;;;11.73;4.93;;;;;;;27.06;53.34;101704.53;5138779;27;20043;-70
2022/08/24 08:48:57;;;;;;;14.80;5.03;;;;;;;27.20;53.37;101700.63;5118058;27;20052;-70
2022/08/24 08:51:47;;;;;;;10.88;4.90;;;;;;;27.30;52.83;101713.34;5100475;27;20498;-69
2022/08/24 08:55:04;;;;;;;23.95;5.55;;;;;;;27.39;52.43;101707.09;5105132;28;20040;-70
2022/08/24 08:58:31;;;;;;;23.83;5.07;;;;;;;27.49;52.28;101712.56;5099000;28;20040;-71
2022/08/24 09:01:16;;;;;;;18.42;5.28;;;;;;;27.58;51.09;101711.75;5089250;28;20076;-70
2022/08/24 09:04:53;;;;;;;15.30;4.18;;;;;;;27.70;51.35;101707.09;5090653;28;20527;-71
2022/08/24 09:07:40;;;;;;;;;;;;;;;27.77;51.63;101708.25;5110592;27;20045;-70
2022/08/24 09:10:38;;;;;;;8.43;3.42;;;;;;;27.93;50.97;101709.56;5112587;27;20299;-71
2022/08/24 09:13:44;;;;;;;7.13;2.35;;;;;;;28.06;49.01;101712.84;5112391;27;20120;-70
2022/08/24 09:16:38;;;;;;;3.47;1.20;;;;;;;28.22;46.85;101712.34;5109171;28;20539;-70
2022/08/24 09:19:32;;;;;;;5.80;1.40;;;;;;;28.35;46.36;101712.03;5113402;27;20044;-70
2022/08/24 09:22:21;;;;;;;2.08;1.50;;;;;;;28.52;46.82;101714.06;5107165;27;20036;-70
2022/08/24 09:24:53;;;;;;;1.65;1.20;;;;;;;28.63;47.06;101712.19;5113824;27;20043;-71
2022/08/24 09:28:17;;;;;;;2.75;1.50;;;;;;;28.76;45.05;101711.91;5106959;27;20101;-69
2022/08/24 09:31:29;;;;;;;2.20;1.50;;;;;;;28.86;44.94;101709.16;5115379;27;20048;-69
2022/08/24 09:34:29;;;;;;;3.45;1.08;;;;;;;28.97;44.19;101695.44;5105152;28;20510;-71
2022/08/24 09:37:20;;;;;;;5.68;1.70;;;;;;;29.06;45.29;101701.84;5102133;27;20040;-71
2022/08/24 09:40:03;;;;;;;7.57;1.77;;;;;;;29.20;44.97;101704.06;5120284;27;20043;-72
2022/08/24 09:43:23;;;;;;;5.30;1.67;;;;;;;29.33;45.19;101708.34;5118722;27;20044;-71
2022/08/24 09:46:11;;;;;;;2.50;1.52;;;;;;;29.40;44.99;101709.47;5112886;27;20117;-72
2022/08/24 09:49:13;;;;;;;1.90;1.50;;;;;;;29.44;42.54;101713.59;5121113;27;20721;-72
2022/08/24 09:52:26;;;;;;;3.45;1.27;;;;;;;29.51;42.75;101711.97;5106708;27;20509;-72
2022/08/24 09:55:52;;;;;;;3.10;1.37;;;;;;;29.63;42.01;101709.94;5093920;28;20041;-73
2022/08/24 09:58:41;;;;;;;4.85;1.60;;;;;;;29.77;43.09;101705.84;5099039;27;20098;-73
2022/08/24 10:01:32;;;;;;;4.40;1.50;;;;;;;29.77;42.11;101707.69;5093185;28;20080;-72
2022/08/24 10:04:19;;;;;;;2.92;1.50;;;;;;;29.81;41.39;101709.09;5105364;28;20044;-74
2022/08/24 10:07:24;;;;;;;3.90;1.67;;;;;;;29.86;41.22;101706.81;5112684;27;20121;-74
2022/08/24 10:10:27;;;;;;;2.90;1.63;;;;;;;29.88;41.90;101691.16;5100320;27;20044;-72
2022/08/24 10:13:25;;;;;;;6.32;1.60;;;;;;;29.97;42.72;101689.44;5092166;28;20052;-72
2022/08/24 10:16:39;;;;;;;2.97;1.23;;;;;;;30.17;42.21;101685.56;5098006;28;20044;-71
2022/08/24 10:19:48;;;;;;;10.10;2.13;;;;;;;30.41;41.09;101689.53;5110889;27;20036;-73
2022/08/24 10:22:39;;;;;;;5.43;1.80;;;;;;;30.58;39.22;101690.50;5097437;28;20723;-71
2022/08/24 10:25:56;;;;;;;7.32;2.05;;;;;;;30.45;40.67;101690.06;5102852;28;20046;-71
2022/08/24 10:29:07;;;;;;;4.10;1.42;;;;;;;30.56;41.38;101684.41;5098127;27;20060;-71
2022/08/24 10:31:47;;;;;;;7.40;1.83;;;;;;;30.72;39.16;101682.78;5101698;28;20096;-72
2022/08/24 10:34:36;;;;;;;5.05;2.47;;;;;;;30.74;39.80;101683.50;5101212;27;20530;-74
2022/08/24 10:37:35;;;;;;;10.60;1.90;;;;;;;30.78;39.91;101676.69;5107477;27;20051;-76
2022/08/24 10:40:30;;;;;;;8.57;2.33;;;;;;;30.68;40.44;101677.66;5107388;27;20047;-73
2022/08/24 10:43:35;;;;;;;22.05;2.50;;;;;;;30.77;40.08;101672.31;5108492;28;20437;-73
2022/08/24 10:46:37;;;;;;;35.08;3.17;;;;;;;30.88;39.27;101665.72;5098080;28;20044;-73
2022/08/24 10:49:35;;;;;;;47.28;5.43;;;;;;;30.98;38.68;101670.03;5100160;27;20040;-73
2022/08/24 10:52:49;;;;;;;3.67;1.63;;;;;;;30.99;38.49;101669.00;5108024;27;20143;-72
2022/08/24 10:55:25;;;;;;;4.60;1.20;;;;;;;31.09;37.91;101671.63;5097535;27;20060;-73
2022/08/24 10:58:42;;;;;;;11.10;1.80;;;;;;;31.20;38.00;101673.22;5129280;27;20118;-72
2022/08/24 11:01:30;;;;;;;9.77;1.55;;;;;;;31.35;37.83;101670.75;5132199;27;20040;-72
2022/08/24 11:04:24;;;;;;;3.53;1.27;;;;;;;31.57;37.83;101658.41;5111295;27;20512;-70
2022/08/24 11:07:08;;;;;;;4.45;1.40;;;;;;;31.86;37.21;101665.31;5108434;27;20045;-70
2022/08/24 11:10:08;;;;;;;5.40;1.33;;;;;;;32.10;36.71;101660.06;5116163;27;20032;-71
2022/08/24 11:12:42;;;;;;;8.18;1.80;;;;;;;32.37;36.57;101658.91;5107021;28;20119;-73
2022/08/24 11:15:27;;;;;;;2.30;1.40;;;;;;;32.64;35.82;101654.94;5104689;27;20121;-73
2022/08/24 11:18:00;;;;;;;2.08;1.40;;;;;;;32.86;35.52;101663.47;5109445;27;20086;-71
2022/08/24 11:20:42;;;;;;;6.70;1.20;;;;;;;33.02;34.89;101654.34;5105417;27;20044;-71
2022/08/24 11:23:16;;;;;;;4.90;1.40;;;;;;;33.10;34.75;101651.63;5108713;28;20036;-72
2022/08/24 11:26:14;;;;;;;6.75;1.40;;;;;;;33.32;34.33;101651.88;5098635;27;20043;-72
2022/08/24 11:28:59;;;;;;;6.90;1.40;;;;;;;33.53;33.89;101654.00;5103295;28;20040;-72
2022/08/24 11:31:39;;;;;;;5.65;1.50;;;;;;;33.72;33.84;101649.09;5106898;27;20643;-71
2022/08/24 11:34:30;;;;;;;1.95;1.20;;;;;;;33.94;33.22;101641.13;5107625;27;20490;-72
2022/08/24 11:36:58;;;;;;;2.38;1.10;;;;;;;34.09;32.78;101632.97;5110687;27;20040;-73
2022/08/24 11:39:34;;;;;;;2.40;1.20;;;;;;;34.03;32.29;101638.16;5106723;27;20044;-74
2022/08/24 11:42:35;;;;;;;3.97;1.20;;;;;;;33.78;32.41;101639.31;5112224;27;20044;-72
2022/08/24 11:45:18;;;;;;;3.65;1.20;;;;;;;33.54;33.03;101642.03;5108536;27;20048;-71
2022/08/24 11:48:02;;;;;;;3.38;1.10;;;;;;;33.38;32.95;101631.19;5113494;27;20097;-73
2022/08/24 11:50:45;;;;;;;4.40;1.13;;;;;;;33.28;31.75;101631.38;5109162;27;20525;-73
2022/08/24 11:53:58;;;;;;;14.30;1.40;;;;;;;33.23;32.19;101626.47;5114850;27;20074;-78
2022/08/24 11:57:02;;;;;;;3.30;1.10;;;;;;;33.06;33.53;101628.41;5106774;27;20128;-77
2022/08/24 11:59:54;;;;;;;3.40;1.10;;;;;;;32.91;33.30;101635.66;5110187;27;22000;-77
2022/08/24 12:02:55;;;;;;;7.82;1.50;;;;;;;32.67;33.61;101640.09;5095495;28;20064;-78
2022/08/24 12:06:04;;;;;;;3.85;1.05;;;;;;;32.48;33.26;101644.03;5111329;28;20102;-77
2022/08/24 12:09:01;;;;;;;3.55;1.20;;;;;;;32.31;34.02;101644.06;5108380;27;20048;-77
2022/08/24 12:11:55;;;;;;;5.70;1.27;;;;;;;32.34;34.13;101635.56;5106804;27;20186;-77